Zvenigorod, Russia
Current Conditions -  °F | °C
As of 1:00 PM on Friday 31 Oct 2014 (Local Time) from UUWW Reporting Station
Broken Clouds Broken Clouds  
Wind Chill: 35°   Ceiling: 20000
Heat Index: 41°   Visibility: 5mi
Dew Point: 32°   Wind: 9mph
Humidity: 70%   Direction: 320°NW
Pressure: 30.06"   Gusts: NA
Location:  55.73°N, 36.85°E
Report Text: UUWW 311000Z 32004MPS 8000 SCT100 BKN200 05/M00 Q1018 24000070NOSIG
Loading
Personal Weather Stations






























Interactive Weather Map
Tropical Storm Tracking
New forecast layout! Learn more

10-Day Weather Forecast

Advertisements
Track Severe Weather on mobile